1893 Cyclonic Storm NOT_NAMED (1893252N18090)


IBTrACS version v04r00. Visit IBTrACS website for data access.
Please direct all questions to the IBTrACS Q and A forum

Storm track - Intensity - Wind Radii - Intensity Data - Source Data - All data

Summary Information

Storm ID 1893252N18090
Start Sep 9 00Z
Landfall Sep 11 03Z
Max Intensity 45 kt (Sep 9 12Z)
End Sep 19 03Z
ATCF IDs
Track status Best track data.

Storm track plot

Map of storm track

Intensity plots

Map of storm track

Radial wind information

No radial wind information for this storm


Position and Intensity Table

BASIN ISO_TIME_________ NATURE LAT LON DS824 WIND
degrees north degrees east kts
NI 1893-09-09 00:00:00 TS 18.30 90.00 34
NI 03:00:00 TS 18.44 89.97 36
NI 06:00:00 TS 18.61 89.91 39
NI 09:00:00 TS 18.76 89.83 42
NI 12:00:00 TS 18.91 89.74 45
NI 15:00:00 TS 19.10 89.65 45
NI 18:00:00 TS 19.29 89.56 45
NI 21:00:00 TS 19.49 89.48 45
NI 1893-09-10 00:00:00 TS 19.69 89.37 45
NI 03:00:00 TS 19.93 89.21 45
NI 06:00:00 TS 20.16 89.02 45
NI 09:00:00 TS 20.37 88.84 45
NI 12:00:00 TS 20.59 88.63 45
NI 15:00:00 TS 20.82 88.36 45
NI 18:00:00 TS 21.07 88.07 45
NI 21:00:00 TS 21.29 87.75 45
NI 1893-09-11 00:00:00 TS 21.50 87.39 45
NI 03:00:00 TS 21.68 86.98 41
NI 06:00:00 TS 21.84 86.55 37
NI 09:00:00 TS 21.99 86.12 33
NI 12:00:00 TS 22.13 85.65 30
NI 15:00:00 TS 22.28 85.11 30
NI 18:00:00 TS 22.42 84.51 30
NI 21:00:00 TS 22.57 83.90 30
NI 1893-09-12 00:00:00 TS 22.72 83.35 30
NI 03:00:00 TS 22.87 82.93 30
NI 06:00:00 TS 23.04 82.62 30
NI 09:00:00 TS 23.22 82.36 30
NI 12:00:00 TS 23.41 82.12 30
NI 15:00:00 TS 23.61 81.86 30
NI 18:00:00 TS 23.79 81.57 30
NI 21:00:00 TS 23.93 81.27 30
NI 1893-09-13 00:00:00 TS 24.04 80.91 30
NI 03:00:00 TS 24.13 80.42 30
NI 06:00:00 TS 24.19 79.82 30
NI 09:00:00 TS 24.25 79.18 30
NI 12:00:00 TS 24.29 78.52 30
NI 15:00:00 TS 24.30 77.91 30
NI 18:00:00 TS 24.32 77.37 30
NI 21:00:00 TS 24.35 76.84 30
NI 1893-09-14 00:00:00 TS 24.39 76.34 30
NI 03:00:00 TS 24.43 75.87 30
NI 06:00:00 TS 24.46 75.41 30
NI 09:00:00 TS 24.48 74.95 30
NI 12:00:00 TS 24.49 74.51 30
NI 15:00:00 TS 24.50 74.10 30
NI 18:00:00 TS 24.50 73.67 30
NI 21:00:00 TS 24.50 73.24 30
NI 1893-09-15 00:00:00 TS 24.50 72.86 30
NI 03:00:00 TS 24.50 72.61 30
NI 06:00:00 TS 24.50 72.44 30
NI 09:00:00 TS 24.50 72.29 30
NI 12:00:00 TS 24.50 72.15 30
NI 15:00:00 TS 24.50 72.02 30
NI 18:00:00 TS 24.49 71.86 30
NI 21:00:00 TS 24.51 71.69 30
NI 1893-09-16 00:00:00 TS 24.56 71.55 30
NI 03:00:00 TS 24.66 71.46 30
NI 06:00:00 TS 24.82 71.42 30
NI 09:00:00 TS 25.04 71.43 30
NI 12:00:00 TS 25.28 71.47 30
NI 15:00:00 TS 25.53 71.55 30
NI 18:00:00 TS 25.75 71.64 30
NI 21:00:00 TS 25.95 71.74 30
NI 1893-09-17 00:00:00 TS 26.17 71.84 30
NI 03:00:00 TS 26.44 71.95 30
NI 06:00:00 TS 26.74 72.04 30
NI 09:00:00 TS 27.07 72.13 30
NI 12:00:00 TS 27.42 72.24 30
NI 15:00:00 TS 27.80 72.36 30
NI 18:00:00 TS 28.20 72.53 30
NI 21:00:00 TS 28.63 72.75 30
NI 1893-09-18 00:00:00 TS 29.02 72.99 30
NI 03:00:00 TS 29.34 73.20 30
NI 06:00:00 TS 29.59 73.41 30
NI 09:00:00 TS 29.80 73.64 30
NI 12:00:00 TS 30.00 73.88 30
NI 15:00:00 TS 30.22 74.12 30
NI 18:00:00 TS 30.44 74.36 30
NI 21:00:00 TS 30.68 74.63 30
NI 1893-09-19 00:00:00 TS 30.92 74.91 30
NI 03:00:00 NR 31.10 75.10

Source Information

Agency Information
USA
TOKYO
CMA
HKO
NEWDELHI
REUNION
BOM
NADI
WELLINGTON
DS824 n_ind.dat:188:NOT NAMED
TD9636 cons_worldwide_trop_cyclone_18710101-19891231-004:Line=1901
TD9635
NEUMANN
MLC

All available IBTrACS Data

SEASON BASIN SUBBASIN ISO_TIME_________ NATURE LAT LON DIST2LAND LANDFALL IFLAG USA SSHS DS824 LAT DS824 LON DS824 STAGE DS824 WIND TD9636 LAT TD9636 LON TD9636 STAGE STORM SPEED STORM DIR
Year degrees north degrees east km km 1 degrees north degrees east kts degrees north degrees east kts degrees
1893 NI BB 1893-09-09 00:00:00 TS 18.30 90.00 361 354 _________O____ -1 18.30 90.00 TC 34 3 353
1893 NI BB 03:00:00 TS 18.44 89.97 354 345 _________PO___ -1 18.51 89.96 TC 36 18.30 90.00 2 3 343
1893 NI BB 06:00:00 TS 18.61 89.91 345 321 _________OP___ -1 18.70 89.90 TC 39 18.47 89.93 2 4 337
1893 NI BB 09:00:00 TS 18.76 89.83 321 308 _________PP___ -1 18.85 89.81 TC 42 18.64 89.85 2 3 331
1893 NI BB 12:00:00 TS 18.91 89.74 308 286 _________OP___ -1 19.00 89.70 TC 45 18.82 89.78 2 4 333
1893 NI BB 15:00:00 TS 19.10 89.65 286 262 _________PO___ -1 19.19 89.60 TC 45 19.00 89.70 3 4 336
1893 NI BB 18:00:00 TS 19.29 89.56 262 238 _________OP___ -1 19.40 89.50 TC 45 19.19 89.62 3 4 338
1893 NI BB 21:00:00 TS 19.49 89.48 238 214 _________PP___ -1 19.59 89.41 TC 45 19.38 89.54 3 4 335
1893 NI BB 1893-09-10 00:00:00 TS 19.69 89.37 214 190 _________OP___ -1 19.80 89.30 TC 45 19.59 89.43 3 5 330
1893 NI BB 03:00:00 TS 19.93 89.21 190 167 _________PO___ -1 20.05 89.12 TC 45 19.80 89.30 3 6 325
1893 NI BB 06:00:00 TS 20.16 89.02 156 134 _________OP___ -1 20.30 88.90 TC 45 20.02 89.15 3 6 322
1893 NI BB 09:00:00 TS 20.37 88.84 134 112 _________PP___ -1 20.50 88.71 TC 45 20.24 88.97 3 6 319
1893 NI BB 12:00:00 TS 20.59 88.63 112 89 _________OP___ -1 20.70 88.50 TC 45 20.47 88.75 3 6 315
1893 NI BB 15:00:00 TS 20.82 88.36 89 56 _________PO___ -1 20.95 88.22 TC 45 20.70 88.50 3 7 313
1893 NI BB 18:00:00 TS 21.07 88.07 56 44 _________OP___ -1 21.20 87.90 TC 45 20.94 88.23 3 7 309
1893 NI BB 21:00:00 TS 21.29 87.75 44 11 _________PP___ -1 21.41 87.57 TC 45 21.17 87.92 3 8 304
1893 NI BB 1893-09-11 00:00:00 TS 21.50 87.39 11 0 _________OP___ -1 21.60 87.20 TC 45 21.40 87.58 3 8 298
1893 NI BB 03:00:00 TS 21.68 86.98 0 0 _________PO___ -1 21.76 86.76 TC 41 21.60 87.20 3 8 293
1893 NI BB 06:00:00 TS 21.84 86.55 0 0 _________OP___ -1 21.90 86.30 TC 37 21.77 86.81 3 9 291
1893 NI BB 09:00:00 TS 21.99 86.12 0 0 _________PP___ -1 22.05 85.87 TC 33 21.92 86.37 3 9 289
1893 NI BB 12:00:00 TS 22.13 85.65 0 0 _________OP___ -1 22.20 85.40 TC 30 22.06 85.91 3 10 287
1893 NI BB 15:00:00 TS 22.28 85.11 0 0 _________PO___ -1 22.35 84.81 TC 30 22.20 85.40 1 11 285
1893 NI BB 18:00:00 TS 22.42 84.51 0 0 _________OP___ -1 22.50 84.20 TC 30 22.35 84.81 1 12 285
1893 NI BB 21:00:00 TS 22.57 83.90 0 0 _________PP___ -1 22.65 83.60 TC 30 22.49 84.20 1 11 286
1893 NI BB 1893-09-12 00:00:00 TS 22.72 83.35 0 0 _________OP___ -1 22.80 83.10 TC 30 22.64 83.61 1 9 288
1893 NI BB 03:00:00 TS 22.87 82.93 0 0 _________PO___ -1 22.94 82.75 TC 30 22.80 83.10 1 7 295
1893 NI BB 06:00:00 TS 23.04 82.62 0 0 _________OP___ -1 23.10 82.50 TC 30 22.97 82.75 1 6 304
1893 NI BB 09:00:00 TS 23.22 82.36 0 0 _________PP___ -1 23.29 82.25 TC 30 23.15 82.47 1 6 309
1893 NI BB 12:00:00 TS 23.41 82.12 0 0 _________OP___ -1 23.50 82.00 TC 30 23.33 82.24 1 6 310
1893 NI BB 15:00:00 TS 23.61 81.86 0 0 _________PO___ -1 23.71 81.72 TC 30 23.50 82.00 1 6 306
1893 NI BB 18:00:00 TS 23.79 81.57 0 0 _________OP___ -1 23.90 81.40 TC 30 23.67 81.74 1 6 301
1893 NI BB 21:00:00 TS 23.93 81.27 0 0 _________PP___ -1 24.02 81.09 TC 30 23.84 81.45 1 7 293
1893 NI BB 1893-09-13 00:00:00 TS 24.04 80.91 0 0 _________OP___ -1 24.10 80.70 TC 30 23.98 81.12 1 8 284
1893 NI BB 03:00:00 TS 24.13 80.42 0 0 _________PO___ -1 24.16 80.14 TC 30 24.10 80.70 1 10 279
1893 NI BB 06:00:00 TS 24.19 79.82 0 0 _________OP___ -1 24.20 79.50 TC 30 24.18 80.14 1 11 276
1893 NI BB 09:00:00 TS 24.25 79.18 0 0 _________PP___ -1 24.26 78.84 TC 30 24.24 79.51 1 12 275
1893 NI BB 12:00:00 TS 24.29 78.52 0 0 _________OP___ -1 24.30 78.20 TC 30 24.27 78.84 1 12 273
1893 NI AS 15:00:00 TS 24.30 77.91 0 0 _________PO___ -1 24.30 77.63 TC 30 24.30 78.20 1 11 272
1893 NI AS 18:00:00 TS 24.32 77.37 0 0 _________OP___ -1 24.30 77.10 TC 30 24.33 77.63 1 10 273
1893 NI AS 21:00:00 TS 24.35 76.84 0 0 _________PP___ -1 24.34 76.59 TC 30 24.36 77.10 1 9 275
1893 NI AS 1893-09-14 00:00:00 TS 24.39 76.34 0 0 _________OP___ -1 24.40 76.10 TC 30 24.38 76.59 1 9 275
1893 NI AS 03:00:00 TS 24.43 75.87 0 0 _________PO___ -1 24.46 75.64 TC 30 24.40 76.10 1 9 275
1893 NI AS 06:00:00 TS 24.46 75.41 0 0 _________OP___ -1 24.50 75.20 TC 30 24.43 75.62 1 8 274
1893 NI AS 09:00:00 TS 24.48 74.95 0 0 _________PP___ -1 24.51 74.74 TC 30 24.46 75.16 1 8 272
1893 NI AS 12:00:00 TS 24.49 74.51 0 0 _________OP___ -1 24.50 74.30 TC 30 24.48 74.72 1 8 271
1893 NI AS 15:00:00 TS 24.50 74.10 0 0 _________PO___ -1 24.50 73.89 TC 30 24.50 74.30 1 8 271
1893 NI AS 18:00:00 TS 24.50 73.67 0 0 _________OP___ -1 24.50 73.50 TC 30 24.51 73.84 1 8 270
1893 NI AS 21:00:00 TS 24.50 73.24 0 0 _________PP___ -1 24.50 73.06 TC 30 24.51 73.41 1 7 270
1893 NI AS 1893-09-15 00:00:00 TS 24.50 72.86 0 0 _________OP___ -1 24.50 72.70 TC 30 24.50 73.02 1 6 270
1893 NI AS 03:00:00 TS 24.50 72.61 0 0 _________PO___ -1 24.50 72.51 TC 30 24.50 72.70 1 4 269
1893 NI AS 06:00:00 TS 24.50 72.44 0 0 _________OP___ -1 24.50 72.40 TC 30 24.50 72.48 1 3 269
1893 NI AS 09:00:00 TS 24.50 72.29 0 0 _________PP___ -1 24.50 72.25 TC 30 24.49 72.32 1 3 270
1893 NI AS 12:00:00 TS 24.50 72.15 0 0 _________OP___ -1 24.50 72.10 TC 30 24.49 72.21 1 2 270
1893 NI AS 15:00:00 TS 24.50 72.02 0 0 _________PO___ -1 24.49 71.95 TC 30 24.50 72.10 1 3 270
1893 NI AS 18:00:00 TS 24.49 71.86 0 0 _________OP___ -1 24.50 71.80 TC 30 24.49 71.93 1 3 272
1893 NI AS 21:00:00 TS 24.51 71.69 0 0 _________PP___ -1 24.53 71.64 TC 30 24.49 71.75 1 3 283
1893 NI AS 1893-09-16 00:00:00 TS 24.56 71.55 0 0 _________OP___ -1 24.60 71.50 TC 30 24.52 71.61 1 3 305
1893 NI AS 03:00:00 TS 24.66 71.46 0 0 _________PO___ -1 24.72 71.42 TC 30 24.60 71.50 1 3 336
1893 NI AS 06:00:00 TS 24.82 71.42 0 0 _________OP___ -1 24.90 71.40 TC 30 24.75 71.44 1 4 354
1893 NI AS 09:00:00 TS 25.04 71.43 0 0 _________PP___ -1 25.13 71.43 TC 30 24.94 71.43 1 5 5
1893 NI AS 12:00:00 TS 25.28 71.47 0 0 _________OP___ -1 25.40 71.50 TC 30 25.16 71.45 1 5 13
1893 NI AS 15:00:00 TS 25.53 71.55 0 0 _________PO___ -1 25.66 71.59 TC 30 25.40 71.50 1 5 17
1893 NI AS 18:00:00 TS 25.75 71.64 0 0 _________OP___ -1 25.90 71.70 TC 30 25.60 71.57 1 5 22
1893 NI AS 21:00:00 TS 25.95 71.74 0 0 _________PP___ -1 26.09 71.80 TC 30 25.81 71.67 1 5 24
1893 NI AS 1893-09-17 00:00:00 TS 26.17 71.84 0 0 _________OP___ -1 26.30 71.90 TC 30 26.04 71.78 1 5 22
1893 NI AS 03:00:00 TS 26.44 71.95 0 0 _________PO___ -1 26.58 72.00 TC 30 26.30 71.90 1 6 18
1893 NI AS 06:00:00 TS 26.74 72.04 0 0 _________OP___ -1 26.90 72.10 TC 30 26.58 71.98 1 7 14
1893 NI AS 09:00:00 TS 27.07 72.13 0 0 _________PP___ -1 27.23 72.19 TC 30 26.90 72.07 1 7 14
1893 NI AS 12:00:00 TS 27.42 72.24 0 0 _________OP___ -1 27.60 72.30 TC 30 27.24 72.17 1 8 16
1893 NI AS 15:00:00 TS 27.80 72.36 0 0 _________PO___ -1 27.99 72.43 TC 30 27.60 72.30 1 8 19
1893 NI AS 18:00:00 TS 28.20 72.53 0 0 _________OP___ -1 28.40 72.60 TC 30 28.01 72.47 1 9 22
1893 NI AS 21:00:00 TS 28.63 72.75 0 0 _________PP___ -1 28.82 72.84 TC 30 28.43 72.66 1 9 26
1893 NI AS 1893-09-18 00:00:00 TS 29.02 72.99 0 0 _________OP___ -1 29.20 73.10 TC 30 28.84 72.88 1 8 29
1893 NI AS 03:00:00 TS 29.34 73.20 0 0 _________PO___ -1 29.48 73.30 TC 30 29.20 73.10 1 7 33
1893 NI AS 06:00:00 TS 29.59 73.41 0 0 _________OP___ -1 29.70 73.50 TC 30 29.47 73.31 1 6 40
1893 NI AS 09:00:00 TS 29.80 73.64 0 0 _________PP___ -1 29.90 73.74 TC 30 29.69 73.53 1 6 45
1893 NI AS 12:00:00 TS 30.00 73.88 0 0 _________OP___ -1 30.10 74.00 TC 30 29.90 73.76 1 6 45
1893 NI AS 15:00:00 TS 30.22 74.12 0 0 _________PO___ -1 30.34 74.24 TC 30 30.10 74.00 1 6 43
1893 NI AS 18:00:00 TS 30.44 74.36 0 0 _________OP___ -1 30.60 74.50 TC 30 30.33 74.26 1 6 44
1893 NI AS 21:00:00 TS 30.68 74.63 0 0 _________PP___ -1 30.85 74.79 TC 30 30.57 74.53 1 7 44
1893 NI AS 1893-09-19 00:00:00 TS 30.92 74.91 0 0 _________OP___ -1 31.10 75.10 TC 30 30.83 74.81 1 6 44
1893 NI AS 03:00:00 NR 31.10 75.10 0 __________O___ -1 TC 31.10 75.10 1 5 42